Time;durP1;ratioP1;P1;durP2;ratioP2;P2;SDS_P1;SDS_P2;PMS_P1;PMS_P2;Temp;Humidity;BMP_temperature;BMP_pressure;BME280_temperature;BME280_humidity;BME280_pressure;Samples;Min_cycle;Max_cycle;Signal;HPM_P1;HPM_P2
2021/06/16 00:01:50;;;;;;;;;18.75;17.50;;;;;28.19;40.76;100798.50;4895729;29;45772;-83
2021/06/16 00:04:15;;;;;;;;;17.25;17.25;;;;;28.17;40.50;100792.50;4896638;29;45777;-81
2021/06/16 00:06:41;;;;;;;;;15.50;15.50;;;;;28.15;40.44;100799.97;4896538;29;46611;-80
2021/06/16 00:09:06;;;;;;;;;16.25;16.00;;;;;28.14;40.15;100804.53;4896306;29;45689;-82
2021/06/16 00:11:33;;;;;;;;;16.75;16.00;;;;;28.06;40.75;100783.25;4896494;29;45753;-84
2021/06/16 00:13:59;;;;;;;;;16.25;16.25;;;;;28.12;40.20;100798.56;4896834;29;45856;-82
2021/06/16 00:16:25;;;;;;;;;15.50;14.75;;;;;28.05;40.88;100783.44;4896356;28;46137;-82
2021/06/16 00:18:50;;;;;;;;;16.50;16.50;;;;;28.04;40.58;100779.94;4896728;29;46065;-82
2021/06/16 00:21:17;;;;;;;;;16.00;16.00;;;;;28.06;40.52;100783.25;4898408;29;45758;-84
2021/06/16 00:23:43;;;;;;;;;18.25;16.75;;;;;28.05;40.89;100784.28;4898796;29;45691;-81
2021/06/16 00:26:09;;;;;;;;;15.50;15.50;;;;;28.05;40.77;100786.97;4900824;29;45801;-83
2021/06/16 00:28:35;;;;;;;;;16.00;15.25;;;;;27.96;40.41;100783.69;4898102;29;45754;-82
2021/06/16 00:31:00;;;;;;;;;18.00;17.25;;;;;28.02;41.06;100779.31;4897110;29;45702;-80
2021/06/16 00:33:26;;;;;;;;;17.00;17.00;;;;;27.97;40.66;100774.59;4896423;29;45905;-82
2021/06/16 00:35:51;;;;;;;;;15.25;15.00;;;;;27.91;40.46;100764.69;4896039;28;46372;-79
2021/06/16 00:38:17;;;;;;;;;18.75;17.50;;;;;27.83;41.26;100756.88;4876181;29;46385;-83
2021/06/16 00:40:42;;;;;;;;;17.50;16.25;;;;;27.97;40.50;100779.16;4889489;29;45695;-80
2021/06/16 00:43:07;;;;;;;;;17.25;16.00;;;;;27.88;40.58;100764.31;4895464;29;47300;-81
2021/06/16 00:45:33;;;;;;;;;18.00;18.00;;;;;27.94;41.17;100775.03;4896045;29;45695;-80
2021/06/16 00:47:59;;;;;;;;;16.75;15.25;;;;;27.73;40.65;100742.25;4894974;29;45836;-81
2021/06/16 00:50:39;;;;;;;;;15.00;14.50;;;;;27.73;41.11;100744.94;4895758;29;45598;-80
2021/06/16 00:53:07;;;;;;;;;16.75;16.00;;;;;27.87;40.50;100768.84;4875811;29;45786;-82
2021/06/16 00:55:38;;;;;;;;;16.75;16.00;;;;;27.79;41.22;100754.84;4891524;29;45622;-82
2021/06/16 00:58:08;;;;;;;;;16.50;16.50;;;;;27.73;41.19;100742.25;4894966;29;46332;-81
2021/06/16 01:00:48;;;;;;;;;16.25;16.00;;;;;27.84;40.50;100765.78;4881566;29;45727;-82
2021/06/16 01:03:24;;;;;;;;;16.25;16.25;;;;;27.82;41.18;100762.47;4895879;29;45750;-81
2021/06/16 01:06:01;;;;;;;;;17.00;15.25;;;;;27.81;40.98;100758.13;4895415;29;45781;-80
2021/06/16 01:08:32;;;;;;;;;18.00;15.25;;;;;27.70;41.14;100745.34;4895038;29;45997;-83
2021/06/16 01:11:02;;;;;;;;;15.25;15.25;;;;;27.74;40.81;100743.91;4895936;29;47397;-84
2021/06/16 01:13:48;;;;;;;;;18.25;16.75;;;;;27.75;41.46;100750.91;4895880;29;45869;-83
2021/06/16 01:16:19;;;;;;;;;16.00;16.00;;;;;27.75;41.30;100746.34;4895298;28;46619;-83
2021/06/16 01:18:53;;;;;;;;;16.50;16.50;;;;;27.71;41.07;100736.25;4895120;29;46382;-82
2021/06/16 01:21:22;;;;;;;;;16.25;16.00;;;;;27.69;41.38;100733.78;4875700;29;45793;-83
2021/06/16 01:24:07;;;;;;;;;15.25;15.25;;;;;27.71;41.09;100738.94;4894565;29;46034;-83
2021/06/16 01:26:34;;;;;;;;;15.00;14.75;;;;;27.67;41.02;100735.84;4892964;29;46955;-82
2021/06/16 01:29:15;;;;;;;;;15.50;15.25;;;;;27.65;40.89;100729.84;4894594;28;45839;-84
2021/06/16 01:31:42;;;;;;;;;19.50;19.00;;;;;27.59;41.61;100724.50;4874991;28;45754;-81
2021/06/16 01:34:09;;;;;;;;;19.50;19.50;;;;;27.59;41.67;100721.81;4894772;29;45922;-84
2021/06/16 01:36:39;;;;;;;;;19.25;18.25;;;;;27.43;41.67;100706.97;4894827;28;45851;-84
2021/06/16 01:39:10;;;;;;;;;21.25;20.50;;;;;27.60;42.01;100731.56;4894525;29;46379;-82
2021/06/16 01:41:37;;;;;;;;;21.25;20.00;;;;;27.52;41.62;100725.41;4889543;29;46112;-83
2021/06/16 01:44:04;;;;;;;;;20.75;20.75;;;;;27.49;42.20;100725.78;4894601;28;45888;-82
2021/06/16 01:46:31;;;;;;;;;21.50;21.50;;;;;27.42;42.28;100716.91;4894812;29;46656;-82
2021/06/16 01:48:58;;;;;;;;;22.25;20.00;;;;;27.36;42.38;100716.97;4894709;29;46655;-83
2021/06/16 01:51:25;;;;;;;;;19.25;19.25;;;;;27.32;42.57;100727.34;4896656;29;45699;-83
2021/06/16 01:53:52;;;;;;;;;22.50;22.25;;;;;27.19;42.76;100700.50;4895923;29;45566;-83
2021/06/16 01:56:19;;;;;;;;;20.50;19.00;;;;;27.25;43.04;100718.50;4895215;29;46038;-82
2021/06/16 01:58:46;;;;;;;;;21.25;17.75;;;;;27.21;42.57;100719.94;4894276;28;46400;-82
2021/06/16 02:01:13;;;;;;;;;24.25;23.50;;;;;27.19;42.85;100718.53;4894355;29;45694;-82
2021/06/16 02:03:39;;;;;;;;;22.50;22.00;;;;;27.09;42.92;100714.44;4878132;29;45989;-83
2021/06/16 02:06:05;;;;;;;;;21.75;21.25;;;;;27.10;42.96;100715.22;4894671;29;46644;-80
2021/06/16 02:08:33;;;;;;;;;20.50;20.25;;;;;27.08;43.13;100712.78;4893811;28;46202;-80
2021/06/16 02:11:01;;;;;;;;;22.25;21.50;;;;;27.06;43.53;100709.47;4894130;29;45774;-80
2021/06/16 02:13:44;;;;;;;;;20.75;20.75;;;;;27.05;43.22;100702.44;4894837;29;45641;-82
2021/06/16 02:16:15;;;;;;;;;20.75;19.25;;;;;27.03;43.57;100695.63;4894303;29;45656;-80
2021/06/16 02:18:54;;;;;;;;;21.25;20.75;;;;;27.02;43.21;100702.88;4893786;29;46238;-82
2021/06/16 02:21:20;;;;;;;;;19.25;19.00;;;;;26.95;43.57;100685.09;4889390;29;45833;-83
2021/06/16 02:23:46;;;;;;;;;18.00;18.00;;;;;26.99;43.25;100702.47;4895799;29;46003;-81
2021/06/16 02:26:13;;;;;;;;;17.25;16.50;;;;;26.91;42.92;100686.56;4895230;29;46687;-83
2021/06/16 02:28:39;;;;;;;;;19.00;18.25;;;;;26.98;43.48;100693.59;4894744;29;46131;-84
2021/06/16 02:31:05;;;;;;;;;19.50;18.25;;;;;26.92;43.53;100680.16;4896635;29;45739;-83
2021/06/16 02:33:31;;;;;;;;;21.25;21.25;;;;;26.90;43.07;100675.00;4898815;29;45775;-81
2021/06/16 02:35:57;;;;;;;;;23.50;23.50;;;;;26.94;43.18;100680.75;4898585;28;45817;-82
2021/06/16 02:38:25;;;;;;;;;24.25;21.25;;;;;26.87;43.22;100678.13;4897567;29;46304;-84
2021/06/16 02:40:53;;;;;;;;;17.00;17.00;;;;;26.81;43.48;100665.50;4897508;29;46130;-83
2021/06/16 02:43:21;;;;;;;;;20.50;20.00;;;;;26.79;44.22;100669.41;4878195;29;46702;-83
2021/06/16 02:45:48;;;;;;;;;25.00;21.00;;;;;26.80;43.69;100685.34;4894736;29;45693;-85
2021/06/16 02:48:14;;;;;;;;;21.50;21.00;;;;;26.75;43.88;100679.78;4897572;28;47196;-85
2021/06/16 02:50:44;;;;;;;;;23.75;20.50;;;;;26.56;44.07;100656.50;4894223;28;46262;-84
2021/06/16 02:53:20;;;;;;;;;21.25;21.25;;;;;26.41;44.37;100639.78;4894435;29;45725;-83
2021/06/16 02:55:52;;;;;;;;;24.00;24.00;;;;;26.47;44.47;100652.38;4894487;29;46581;-87
2021/06/16 02:58:18;;;;;;;;;23.00;23.00;;;;;26.42;44.85;100649.50;4893552;29;45967;-85
2021/06/16 03:00:58;;;;;;;;;4.75;3.25;;;;;26.38;45.12;100657.16;4894122;29;45668;-83
2021/06/16 03:03:25;;;;;;;;;22.00;22.00;;;;;26.36;45.01;100674.50;4875255;29;45783;-83
2021/06/16 03:05:52;;;;;;;;;22.50;21.00;;;;;26.23;44.99;100662.78;4898824;29;46256;-81
2021/06/16 03:08:24;;;;;;;;;20.75;20.50;;;;;26.13;45.27;100656.13;4898144;29;46614;-82
2021/06/16 03:10:50;;;;;;;;;22.50;21.75;;;;;26.14;45.85;100663.16;4887300;29;46368;-84
2021/06/16 03:13:16;;;;;;;;;23.00;20.00;;;;;26.11;45.49;100668.97;4898663;29;45805;-84
2021/06/16 03:15:45;;;;;;;;;25.25;22.75;;;;;25.96;45.73;100649.56;4900457;28;46923;-81
2021/06/16 03:18:12;;;;;;;;;21.25;21.25;;;;;25.98;45.72;100663.59;4901920;29;45631;-83
2021/06/16 03:20:39;;;;;;;;;26.25;23.00;;;;;25.92;45.95;100666.06;4902095;29;45564;-82
2021/06/16 03:23:05;;;;;;;;;22.25;21.00;;;;;25.90;46.14;100675.38;4901461;29;45705;-81
2021/06/16 03:25:32;;;;;;;;;23.00;22.00;;;;;25.79;46.06;100659.91;4898830;29;45653;-85
2021/06/16 03:27:58;;;;;;;;;23.75;22.25;;;;;25.79;46.20;100654.53;4894486;29;47025;-83
2021/06/16 03:30:24;;;;;;;;;26.00;24.00;;;;;25.85;45.95;100667.97;4903365;28;45756;-85
2021/06/16 03:32:52;;;;;;;;;26.25;23.50;;;;;25.85;46.53;100667.13;4900057;28;46795;-83
2021/06/16 03:35:19;;;;;;;;;20.75;20.50;;;;;25.78;46.41;100656.38;4897353;28;46606;-84
2021/06/16 03:37:46;;;;;;;;;24.50;23.50;;;;;25.86;46.24;100671.44;4896977;29;46032;-86
2021/06/16 03:40:12;;;;;;;;;21.75;21.50;;;;;25.80;46.49;100667.72;4909899;28;45723;-85
2021/06/16 03:42:39;;;;;;;;;25.25;23.00;;;;;25.86;46.25;100674.97;4902198;28;45769;-85
2021/06/16 03:45:07;;;;;;;;;23.25;22.75;;;;;25.75;46.83;100659.47;4898470;29;46302;-84
2021/06/16 03:47:34;;;;;;;;;23.50;23.50;;;;;25.86;46.58;100674.13;4906396;28;46096;-86
2021/06/16 03:50:03;;;;;;;;;21.00;20.75;;;;;25.86;46.44;100674.13;4881605;28;45854;-85
2021/06/16 03:52:30;;;;;;;;;36.00;32.25;;;;;25.85;46.52;100676.00;4878402;29;45731;-84
2021/06/16 03:54:56;;;;;;;;;37.50;34.00;;;;;25.85;46.62;100669.81;4883103;29;47246;-85
2021/06/16 03:57:22;;;;;;;;;25.25;23.75;;;;;25.85;46.61;100667.97;4898084;28;46160;-87
2021/06/16 03:59:49;;;;;;;;;23.75;23.25;;;;;25.77;46.50;100651.22;4898216;28;45876;-85
2021/06/16 04:02:19;;;;;;;;;31.25;27.25;;;;;25.73;46.72;100641.94;4898856;28;45727;-85
2021/06/16 04:04:45;;;;;;;;;28.00;27.00;;;;;25.87;46.49;100652.44;4904427;28;45776;-86
2021/06/16 04:07:18;;;;;;;;;20.00;19.50;;;;;25.70;46.76;100632.41;4899000;28;46250;-87
2021/06/16 04:09:48;;;;;;;;;24.00;21.75;;;;;25.75;47.02;100627.25;4897269;28;45908;-84
2021/06/16 04:12:13;;;;;;;;;24.25;22.25;;;;;25.92;46.91;100654.50;4897816;29;45678;-84
2021/06/16 04:14:40;;;;;;;;;23.00;22.25;;;;;25.83;46.49;100643.16;4897431;28;45777;-86
2021/06/16 04:17:06;;;;;;;;;23.75;21.00;;;;;25.75;46.88;100629.94;4893296;28;47189;-85
2021/06/16 04:19:32;;;;;;;;;20.00;20.00;;;;;25.70;46.85;100620.84;4895714;28;45693;-86
2021/06/16 04:21:57;;;;;;;;;26.00;25.75;;;;;25.96;47.10;100668.38;4894597;28;47362;-86
2021/06/16 04:24:23;;;;;;;;;25.50;22.50;;;;;25.95;46.73;100661.34;4896707;29;46214;-80
2021/06/16 04:26:48;;;;;;;;;22.00;20.50;;;;;25.98;46.77;100664.41;4898834;28;46326;-84
2021/06/16 04:29:13;;;;;;;;;23.25;22.00;;;;;25.99;46.44;100662.56;4902943;28;46042;-84
2021/06/16 04:31:39;;;;;;;;;21.00;20.25;;;;;25.96;46.44;100655.78;4896891;28;46087;-84
2021/06/16 04:34:04;;;;;;;;;21.00;21.00;;;;;26.01;46.65;100649.75;4896701;29;46867;-83
2021/06/16 04:36:30;;;;;;;;;22.00;21.00;;;;;25.89;46.56;100622.72;4896556;29;46072;-83
2021/06/16 04:38:55;;;;;;;;;23.75;21.00;;;;;26.04;46.69;100643.97;4897605;29;46036;-85
2021/06/16 04:41:20;;;;;;;;;21.75;21.50;;;;;26.05;46.44;100642.94;4895970;29;45908;-82
2021/06/16 04:43:46;;;;;;;;;22.75;21.50;;;;;26.06;46.29;100645.41;4897498;29;45607;-84
2021/06/16 04:46:11;;;;;;;;;23.75;23.75;;;;;26.00;46.25;100627.47;4899570;29;45643;-81
2021/06/16 04:48:41;;;;;;;;;21.25;19.25;;;;;26.09;46.29;100636.09;4898656;29;45811;-84
2021/06/16 04:51:06;;;;;;;;;19.75;19.75;;;;;26.11;46.31;100636.72;4897309;29;45868;-84
2021/06/16 04:53:31;;;;;;;;;21.25;21.25;;;;;26.12;46.49;100635.72;4897198;29;46353;-85
2021/06/16 04:55:57;;;;;;;;;23.50;22.50;;;;;26.07;46.46;100624.75;4878301;29;46268;-84
2021/06/16 04:58:22;;;;;;;;;24.00;22.50;;;;;26.15;45.96;100627.22;4896223;29;46566;-84
2021/06/16 05:00:49;;;;;;;;;22.25;20.25;;;;;25.97;46.34;100598.31;4896695;29;46224;-82
2021/06/16 05:03:14;;;;;;;;;24.00;23.00;;;;;25.98;46.67;100593.78;4895141;29;46940;-85
2021/06/16 05:05:39;;;;;;;;;22.50;22.00;;;;;26.13;45.96;100613.16;4896096;29;46043;-83
2021/06/16 05:08:05;;;;;;;;;24.75;22.75;;;;;26.14;46.24;100620.19;4895162;29;45623;-83
2021/06/16 05:10:31;;;;;;;;;40.75;35.25;;;;;26.17;46.33;100615.25;4896660;29;45603;-86
2021/06/16 05:12:56;;;;;;;;;24.25;22.50;;;;;26.18;46.70;100619.53;4895238;29;46063;-81
2021/06/16 05:15:21;;;;;;;;;28.00;26.50;;;;;26.14;46.30;100609.44;4904244;28;46116;-86
2021/06/16 05:17:47;;;;;;;;;29.25;27.25;;;;;26.20;46.48;100614.81;4906986;29;45751;-84
2021/06/16 05:20:14;;;;;;;;;26.75;25.25;;;;;26.21;46.25;100616.47;4906402;29;45773;-87
2021/06/16 05:22:42;;;;;;;;;23.50;22.50;;;;;26.18;46.62;100603.44;4898223;29;45659;-86
2021/06/16 05:25:10;;;;;;;;;24.00;23.25;;;;;26.23;46.42;100606.38;4876062;29;48197;-83
2021/06/16 05:27:37;;;;;;;;;22.25;21.75;;;;;26.25;46.31;100615.03;4893193;28;45813;-88
2021/06/16 05:30:04;;;;;;;;;21.25;21.00;;;;;26.26;46.12;100618.53;4894999;29;45955;-83
2021/06/16 05:32:29;;;;;;;;;20.00;20.00;;;;;26.23;45.90;100610.91;4895506;28;46636;-84
2021/06/16 05:34:56;;;;;;;;;22.00;21.00;;;;;26.25;46.37;100603.44;4892836;28;45908;-86
2021/06/16 05:37:22;;;;;;;;;22.75;20.00;;;;;26.24;46.36;100607.16;4895612;28;46062;-83
2021/06/16 05:39:48;;;;;;;;;20.25;19.00;;;;;26.31;46.24;100608.81;4895818;29;45887;-82
2021/06/16 05:42:13;;;;;;;;;21.25;19.75;;;;;26.26;46.02;100600.56;4895932;29;47180;-85
2021/06/16 05:44:38;;;;;;;;;23.00;20.25;;;;;26.36;46.23;100610.84;4895782;29;46159;-84
2021/06/16 05:47:04;;;;;;;;;22.75;21.25;;;;;26.39;46.05;100615.81;4894917;28;46117;-83
2021/06/16 05:49:30;;;;;;;;;25.00;24.00;;;;;26.41;46.51;100611.03;4892699;29;46031;-82
2021/06/16 05:51:56;;;;;;;;;21.25;20.00;;;;;26.35;46.22;100595.78;4882964;29;45884;-83
2021/06/16 05:54:22;;;;;;;;;24.25;22.00;;;;;26.44;45.99;100607.94;4889513;29;47153;-82
2021/06/16 05:56:48;;;;;;;;;22.75;22.75;;;;;26.43;45.80;100608.16;4877706;29;45751;-85
2021/06/16 05:59:13;;;;;;;;;27.25;23.00;;;;;26.42;46.33;100614.56;4894236;29;45974;-85
2021/06/16 06:01:39;;;;;;;;;21.75;20.75;;;;;26.38;46.15;100606.09;4894450;29;46506;-82
2021/06/16 06:04:07;;;;;;;;;20.75;19.75;;;;;26.35;46.32;100595.78;4887808;28;46993;-82
2021/06/16 06:06:36;;;;;;;;;21.75;21.00;;;;;26.42;46.13;100601.94;4895040;29;46032;-83
2021/06/16 06:09:08;;;;;;;;;21.00;18.75;;;;;26.45;46.50;100614.94;4895546;28;45974;-82
2021/06/16 06:11:34;;;;;;;;;21.50;20.00;;;;;26.44;46.06;100613.31;4890907;29;45798;-83
2021/06/16 06:14:01;;;;;;;;;21.75;20.75;;;;;26.44;46.17;100607.94;4881640;29;48344;-84
2021/06/16 06:16:27;;;;;;;;;24.50;20.75;;;;;26.42;46.12;100596.56;4894359;29;45830;-80
2021/06/16 06:18:52;;;;;;;;;22.50;22.00;;;;;26.36;46.24;100589.38;4894276;29;46066;-80
2021/06/16 06:21:18;;;;;;;;;18.00;17.00;;;;;26.49;46.51;100613.50;4895415;29;46702;-83
2021/06/16 06:23:43;;;;;;;;;22.00;21.00;;;;;26.37;46.54;100584.81;4893720;29;46404;-83
2021/06/16 06:26:09;;;;;;;;;22.50;22.50;;;;;26.48;46.30;100603.78;4894509;29;46196;-79
2021/06/16 06:28:36;;;;;;;;;23.50;21.50;;;;;26.44;46.43;100602.56;4897481;29;45685;-85
2021/06/16 06:31:01;;;;;;;;;23.25;21.75;;;;;26.44;46.20;100602.56;4905224;29;45789;-84
2021/06/16 06:33:27;;;;;;;;;22.25;21.50;;;;;26.50;46.47;100609.78;4898038;29;45690;-84
2021/06/16 06:36:00;;;;;;;;;22.25;21.00;;;;;26.54;46.25;100613.69;4895639;28;45889;-83
2021/06/16 06:38:26;;;;;;;;;21.50;21.25;;;;;26.47;45.96;100601.31;4877468;29;46005;-85
2021/06/16 06:40:51;;;;;;;;;23.25;21.25;;;;;26.39;46.33;100588.97;4897935;29;46206;-84
2021/06/16 06:43:17;;;;;;;;;23.25;22.50;;;;;26.52;46.51;100610.38;4880474;29;47952;-84
2021/06/16 06:45:42;;;;;;;;;22.50;21.75;;;;;26.28;46.50;100560.88;4898124;29;46079;-84
2021/06/16 06:48:08;;;;;;;;;24.50;22.25;;;;;26.42;47.21;100591.19;4897496;29;45897;-83
2021/06/16 06:50:34;;;;;;;;;23.50;22.75;;;;;26.47;46.65;100594.06;4896596;29;45836;-84
2021/06/16 06:52:59;;;;;;;;;19.25;19.00;;;;;26.48;46.38;100592.22;4884362;29;47113;-83
2021/06/16 06:55:25;;;;;;;;;19.75;18.25;;;;;26.54;46.60;100596.75;4897619;29;45988;-83
2021/06/16 06:57:50;;;;;;;;;22.25;18.00;;;;;26.56;46.73;100587.41;4880185;29;45739;-81
2021/06/16 07:00:16;;;;;;;;;20.75;20.50;;;;;26.58;46.31;100592.59;4881162;29;46507;-82
2021/06/16 07:02:45;;;;;;;;;23.75;22.50;;;;;26.43;46.11;100560.63;4897749;28;45886;-81
2021/06/16 07:05:11;;;;;;;;;20.00;19.25;;;;;26.57;46.32;100572.94;4898015;29;45919;-81
2021/06/16 07:07:37;;;;;;;;;20.75;18.75;;;;;26.59;46.67;100575.41;4898341;29;45575;-82
2021/06/16 07:10:03;;;;;;;;;19.75;19.50;;;;;26.65;46.81;100590.69;4898816;29;45797;-82
2021/06/16 07:12:29;;;;;;;;;18.25;17.75;;;;;26.60;46.26;100572.53;4900160;28;46000;-80
2021/06/16 07:14:55;;;;;;;;;20.00;18.25;;;;;26.51;46.17;100549.59;4901229;29;45610;-81
2021/06/16 07:17:22;;;;;;;;;18.25;17.25;;;;;26.63;46.14;100568.56;4883618;29;46932;-80
2021/06/16 07:19:48;;;;;;;;;21.75;19.25;;;;;26.74;46.15;100581.34;4900140;29;46547;-81
2021/06/16 07:22:13;;;;;;;;;20.00;19.00;;;;;26.66;46.13;100569.00;4884593;29;48204;-80
2021/06/16 07:24:40;;;;;;;;;18.00;16.75;;;;;26.79;46.10;100586.88;4893425;28;45753;-80
2021/06/16 07:27:07;;;;;;;;;18.25;17.50;;;;;26.74;46.34;100570.56;4901926;29;45766;-88
2021/06/16 10:34:02;;;;;;;;;;;;;;;;;;;;;
2021/06/16 11:17:05;;;;;;;;;11.75;11.75;;;;;29.91;38.20;100374.81;5607104;23;46649;-94
2021/06/16 11:32:32;;;;;;;;;;;;;;;;;;;;;
2021/06/16 11:35:37;;;;;;;;;14.50;13.25;;;;;30.42;37.20;100414.44;4911103;29;73040;-91
2021/06/16 11:38:03;;;;;;;;;12.00;12.00;;;;;30.44;37.08;100416.91;4901243;29;45908;-93
2021/06/16 11:40:29;;;;;;;;;13.50;11.50;;;;;30.24;37.18;100374.06;4890676;29;47935;-91
2021/06/16 11:43:15;;;;;;;;;10.25;9.75;;;;;30.38;36.73;100385.41;4877956;29;47775;-94
2021/06/16 11:46:13;;;;;;;;;16.00;13.25;;;;;30.53;36.91;100409.22;4893917;29;45714;-92
2021/06/16 11:48:42;;;;;;;;;13.50;11.75;;;;;30.55;37.03;100407.09;4834036;29;45622;-89
2021/06/16 11:51:31;;;;;;;;;11.75;11.75;;;;;30.59;36.97;100406.38;4835792;29;47382;-92
2021/06/16 11:54:19;;;;;;;;;12.00;11.25;;;;;30.65;36.50;100401.84;4804153;29;47490;-91
2021/06/16 11:57:11;;;;;;;;;12.00;12.00;;;;;30.69;36.71;100403.00;4821034;29;45839;-92
2021/06/16 12:00:30;;;;;;;;;11.75;11.00;;;;;30.59;36.56;100371.19;4818905;29;45698;-93
2021/06/16 12:02:59;;;;;;;;;10.75;10.75;;;;;30.80;36.34;100394.81;4768658;29;45667;-92
2021/06/16 12:05:27;;;;;;;;;12.75;11.75;;;;;30.61;36.48;100360.13;4760796;29;45741;-93
2021/06/16 12:08:01;;;;;;;;;11.75;11.50;;;;;30.87;36.53;100401.94;4766579;29;46090;-90
2021/06/16 12:10:45;;;;;;;;;12.00;11.25;;;;;30.89;36.18;100389.78;4758326;29;45804;-89
2021/06/16 12:13:13;;;;;;;;;10.00;9.75;;;;;30.93;35.48;100395.53;4779920;29;47151;-91
2021/06/16 12:15:44;;;;;;;;;8.25;8.00;;;;;30.84;35.96;100377.00;4761440;29;47108;-90
2021/06/16 12:18:17;;;;;;;;;8.75;8.75;;;;;30.54;35.69;100322.44;4774901;29;45783;-91
2021/06/16 12:20:51;;;;;;;;;10.50;10.50;;;;;31.02;35.18;100394.03;4778959;29;45778;-90
2021/06/16 12:23:40;;;;;;;;;10.50;9.50;;;;;30.95;35.71;100369.03;4759098;29;48026;-91
2021/06/16 12:26:24;;;;;;;;;12.00;11.00;;;;;30.93;35.72;100354.94;4831916;29;47890;-92
2021/06/16 12:28:58;;;;;;;;;10.75;10.75;;;;;31.16;35.37;100388.03;4827754;29;45825;-92
2021/06/16 12:31:34;;;;;;;;;12.75;11.00;;;;;31.07;35.65;100362.47;4834293;29;45739;-92
2021/06/16 12:36:34;;;;;;;;;10.50;10.50;;;;;31.30;35.05;100380.41;4902098;29;46069;-92
2021/06/16 12:39:11;;;;;;;;;9.50;9.00;;;;;31.35;34.44;100371.50;4888875;29;45710;-92
2021/06/16 12:41:53;;;;;;;;;10.00;10.00;;;;;31.40;34.47;100377.81;4882049;29;45681;-91
2021/06/16 12:44:24;;;;;;;;;11.00;10.75;;;;;31.23;34.64;100342.66;4873608;29;47233;-91
2021/06/16 12:47:12;;;;;;;;;8.00;8.00;;;;;31.49;34.88;100370.88;4894934;29;46111;-90
2021/06/16 12:49:48;;;;;;;;;9.00;8.00;;;;;31.52;34.08;100367.69;4877563;29;45860;-91
2021/06/16 12:52:26;;;;;;;;;9.50;9.25;;;;;31.42;34.18;100337.75;4889044;29;45690;-90
2021/06/16 12:54:52;;;;;;;;;11.50;10.75;;;;;31.32;34.10;100315.13;4879041;29;47345;-89
2021/06/16 12:57:22;;;;;;;;;8.25;8.25;;;;;31.41;33.93;100322.59;4883422;29;48071;-89
2021/06/16 12:59:53;;;;;;;;;8.50;7.75;;;;;31.47;33.97;100321.53;4878050;29;45888;-90
2021/06/16 13:02:25;;;;;;;;;7.50;7.50;;;;;31.71;33.03;100337.56;4893036;29;45715;-91
2021/06/16 13:05:11;;;;;;;;;7.25;7.00;;;;;31.75;33.67;100334.09;4883470;29;47495;-88
2021/06/16 13:07:51;;;;;;;;;8.25;8.00;;;;;31.48;33.59;100292.56;4892843;29;46850;-90
2021/06/16 13:10:25;;;;;;;;;8.75;8.25;;;;;31.80;33.54;100331.44;4899205;29;45587;-90
2021/06/16 13:13:04;;;;;;;;;7.25;7.25;;;;;31.52;33.64;100278.28;4915321;28;45868;-90
2021/06/16 13:15:38;;;;;;;;;8.00;8.00;;;;;31.85;33.79;100320.63;4888385;29;47414;-88
2021/06/16 13:18:16;;;;;;;;;8.00;8.00;;;;;31.79;33.25;100310.03;4876815;29;47763;-90
2021/06/16 13:20:42;;;;;;;;;7.75;7.75;;;;;31.77;33.04;100304.84;4889168;29;45760;-89
2021/06/16 13:23:32;;;;;;;;;7.00;6.75;;;;;31.93;33.14;100319.38;4876880;29;45651;-90
2021/06/16 13:25:59;;;;;;;;;8.25;8.25;;;;;31.66;33.73;100266.00;4889228;29;47482;-88
2021/06/16 13:28:34;;;;;;;;;8.00;8.00;;;;;31.80;33.65;100293.50;4905332;29;46239;-88
2021/06/16 13:31:02;;;;;;;;;9.75;8.50;;;;;31.99;33.57;100312.94;4885082;29;45806;-90
2021/06/16 13:33:36;;;;;;;;;8.75;8.50;;;;;31.89;33.34;100289.25;4874464;29;45837;-89
2021/06/16 13:36:15;;;;;;;;;7.50;7.50;;;;;32.03;33.04;100300.50;4881417;29;47369;-88
2021/06/16 13:38:45;;;;;;;;;10.50;10.50;;;;;31.90;32.84;100266.50;4872099;29;47177;-88
2021/06/16 13:41:11;;;;;;;;;7.50;7.00;;;;;32.00;32.92;100285.56;4878503;29;45768;-90
2021/06/16 13:43:37;;;;;;;;;8.25;7.50;;;;;31.72;32.88;100244.38;4899514;29;45519;-90
2021/06/16 13:46:03;;;;;;;;;7.00;6.25;;;;;32.02;32.45;100288.81;4896460;29;47353;-91
2021/06/16 13:48:28;;;;;;;;;7.00;6.25;;;;;32.13;32.44;100295.19;4866972;29;46584;-91
2021/06/16 13:50:54;;;;;;;;;5.50;5.50;;;;;31.84;32.66;100248.56;4876983;29;45949;-88
2021/06/16 13:53:20;;;;;;;;;8.00;7.75;;;;;31.98;32.27;100257.88;4875157;29;45865;-88
2021/06/16 13:55:49;;;;;;;;;6.25;6.25;;;;;32.03;31.69;100254.41;4870894;29;47171;-89
2021/06/16 13:58:16;;;;;;;;;6.50;6.00;;;;;32.06;31.34;100253.91;4884328;29;47028;-89
2021/06/16 14:00:41;;;;;;;;;6.00;6.00;;;;;31.90;31.71;100219.59;4882868;29;45744;-89
2021/06/16 14:03:07;;;;;;;;;8.00;8.00;;;;;32.03;31.50;100238.13;4874627;29;46045;-90
2021/06/16 14:05:34;;;;;;;;;7.25;7.00;;;;;31.97;31.34;100221.00;4876108;29;48127;-86
2021/06/16 14:08:11;;;;;;;;;6.75;6.25;;;;;32.37;30.69;100287.50;4878096;29;46396;-91
2021/06/16 14:10:37;;;;;;;;;7.00;6.75;;;;;32.29;30.85;100272.53;4855822;29;45526;-89
2021/06/16 14:13:04;;;;;;;;;7.00;7.00;;;;;32.19;30.92;100247.22;4845123;29;46035;-89
2021/06/16 14:15:32;;;;;;;;;7.25;7.25;;;;;32.36;30.80;100251.44;4862110;29;46495;-88
2021/06/16 14:17:57;;;;;;;;;7.00;6.50;;;;;32.43;30.80;100256.63;4867075;29;48346;-91
2021/06/16 14:20:24;;;;;;;;;6.25;6.25;;;;;32.16;30.95;100204.38;4845914;29;45549;-90
2021/06/16 14:22:51;;;;;;;;;8.75;8.00;;;;;32.42;30.72;100246.84;4861162;29;45754;-87
2021/06/16 14:25:18;;;;;;;;;6.00;6.00;;;;;32.48;31.08;100241.22;4854783;29;48590;-89
2021/06/16 14:27:44;;;;;;;;;5.50;5.00;;;;;32.68;30.67;100264.97;4856140;29;48457;-89
2021/06/16 14:30:14;;;;;;;;;6.25;5.75;;;;;32.75;30.71;100262.84;4877314;29;45770;-89
2021/06/16 14:32:39;;;;;;;;;5.50;5.50;;;;;32.77;30.47;100252.50;4878866;29;46021;-89
2021/06/16 14:35:06;;;;;;;;;5.75;5.00;;;;;32.95;30.46;100267.53;4865987;29;47011;-89
2021/06/16 14:37:32;;;;;;;;;5.00;5.00;;;;;33.00;29.58;100259.41;4890883;29;48063;-88
2021/06/16 14:39:59;;;;;;;;;5.50;5.50;;;;;33.00;29.88;100239.59;4897597;29;45741;-88
2021/06/16 14:42:25;;;;;;;;;7.00;7.00;;;;;33.00;29.98;100239.59;4882518;29;46067;-90
2021/06/16 14:44:53;;;;;;;;;6.25;6.25;;;;;32.99;29.68;100230.63;4900158;29;47858;-92
2021/06/16 14:47:20;;;;;;;;;8.00;7.25;;;;;33.35;30.05;100266.09;4889908;29;46983;-90
2021/06/16 14:49:49;;;;;;;;;7.00;6.50;;;;;33.45;29.91;100252.53;4864431;29;45752;-89
2021/06/16 14:52:17;;;;;;;;;6.50;6.50;;;;;33.39;29.87;100215.56;4884773;29;45818;-90
2021/06/16 14:54:42;;;;;;;;;6.00;5.75;;;;;33.78;30.22;100229.53;4872824;29;47412;-88
2021/06/16 14:57:08;;;;;;;;;5.75;5.75;;;;;34.42;29.61;100246.09;4871115;29;47153;-92
2021/06/16 14:59:33;;;;;;;;;7.00;6.50;;;;;35.20;29.09;100249.16;4885816;29;45811;-86
2021/06/16 15:01:59;;;;;;;;;7.25;7.25;;;;;36.07;28.76;100263.84;4884204;29;45690;-86
2021/06/16 15:04:27;;;;;;;;;7.00;7.00;;;;;36.57;27.32;100230.66;4889536;29;46669;-87
2021/06/16 15:07:05;;;;;;;;;7.50;6.25;;;;;37.23;27.35;100245.47;4882389;29;47212;-88
2021/06/16 15:09:31;;;;;;;;;6.00;6.00;;;;;37.63;26.97;100241.34;4894832;29;45850;-89
2021/06/16 15:11:56;;;;;;;;;5.25;5.00;;;;;38.01;26.89;100225.69;4876916;29;45718;-87
2021/06/16 15:14:23;;;;;;;;;6.50;6.00;;;;;38.51;25.62;100243.16;4872312;29;46061;-90
2021/06/16 15:16:49;;;;;;;;;6.00;6.00;;;;;38.77;24.95;100237.97;4883265;29;47013;-89
2021/06/16 15:19:15;;;;;;;;;5.50;5.50;;;;;38.79;24.63;100213.84;4877614;29;45570;-88
2021/06/16 15:21:47;;;;;;;;;5.00;4.25;;;;;39.00;24.41;100210.41;4871901;29;45735;-89
2021/06/16 15:24:13;;;;;;;;;4.75;4.75;;;;;39.25;24.32;100198.03;4875119;29;47808;-88
2021/06/16 15:26:40;;;;;;;;;5.25;5.25;;;;;39.72;23.69;100226.88;4899707;29;46638;-88